createdAt,value
2018-06-09T00:02:21.362Z,2.83
2018-06-09T00:04:56.734Z,2.40
2018-06-09T00:07:31.896Z,2.53
2018-06-09T00:32:43.337Z,2.62
2018-06-09T00:35:18.555Z,2.73
2018-06-09T00:37:54.429Z,3.17
2018-06-09T00:40:30.571Z,2.67
2018-06-09T00:43:05.830Z,2.87
2018-06-09T00:45:40.904Z,3.10
2018-06-09T00:48:16.158Z,2.80
2018-06-09T00:55:12.617Z,2.90
2018-06-09T00:57:47.646Z,3.13
2018-06-09T01:00:24.019Z,2.85
2018-06-09T01:02:59.485Z,3.03
2018-06-09T01:05:35.254Z,2.60
2018-06-09T01:08:10.373Z,3.13
2018-06-09T01:10:46.282Z,2.60
2018-06-09T01:13:21.865Z,2.70
2018-06-09T01:15:56.697Z,2.70
2018-06-09T01:18:31.815Z,2.97
2018-06-09T01:21:06.851Z,2.47
2018-06-09T01:23:41.839Z,2.70
2018-06-09T01:26:18.154Z,2.80
2018-06-09T01:28:53.412Z,2.77
2018-06-09T01:31:28.545Z,2.87
2018-06-09T01:34:03.892Z,2.87
2018-06-09T01:36:39.373Z,2.70
2018-06-09T01:39:14.677Z,3.20
2018-06-09T01:41:49.601Z,3.07
2018-06-09T01:44:24.823Z,2.90
2018-06-09T01:46:59.893Z,2.93
2018-06-09T01:49:35.117Z,2.77
2018-06-09T01:52:10.411Z,2.83
2018-06-09T01:54:45.409Z,3.00
2018-06-09T01:57:20.737Z,3.03
2018-06-09T01:59:55.882Z,2.97
2018-06-09T02:02:31.273Z,3.23
2018-06-09T02:05:06.867Z,3.37
2018-06-09T02:07:41.938Z,3.23
2018-06-09T02:10:18.129Z,3.38
2018-06-09T02:12:53.110Z,3.20
2018-06-09T02:15:28.579Z,3.37
2018-06-09T02:18:04.085Z,3.30
2018-06-09T02:43:15.780Z,3.70
2018-06-09T02:45:50.994Z,3.60
2018-06-09T02:48:26.367Z,4.17
2018-06-09T02:54:56.085Z,4.28
2018-06-09T02:57:31.832Z,4.10
2018-06-09T03:00:08.200Z,3.83
2018-06-09T03:02:43.513Z,4.13
2018-06-09T03:05:18.673Z,4.13
2018-06-09T03:07:53.995Z,3.57
2018-06-09T03:10:30.013Z,3.80
2018-06-09T03:13:05.126Z,3.73
2018-06-09T03:15:40.220Z,4.10
2018-06-09T03:18:15.160Z,4.30
2018-06-09T03:40:12.841Z,4.20
2018-06-09T03:42:48.352Z,5.63
2018-06-09T03:45:23.780Z,5.10
2018-06-09T03:47:59.325Z,4.90
2018-06-09T03:50:35.439Z,4.47
2018-06-09T03:53:10.472Z,5.27
2018-06-09T03:55:45.620Z,4.77
2018-06-09T03:58:20.739Z,5.27
2018-06-09T04:00:56.980Z,5.62
2018-06-09T04:03:32.102Z,5.90
2018-06-09T04:06:07.157Z,5.50
2018-06-09T04:08:42.184Z,5.37
2018-06-09T04:11:17.425Z,5.33
2018-06-09T04:13:52.485Z,5.23
2018-06-09T04:16:27.672Z,5.00
2018-06-09T04:19:02.749Z,4.93
2018-06-09T04:21:37.810Z,5.20
2018-06-09T04:24:12.905Z,5.43
2018-06-09T04:26:48.105Z,5.27
2018-06-09T04:29:23.200Z,5.10
2018-06-09T04:31:58.397Z,4.90
2018-06-09T04:34:33.345Z,5.33
2018-06-09T04:37:08.676Z,4.80
2018-06-09T04:39:43.931Z,4.83
2018-06-09T04:42:18.977Z,4.47
2018-06-09T04:44:54.277Z,4.07
2018-06-09T04:47:29.363Z,4.27
2018-06-09T04:50:05.125Z,4.53
2018-06-09T04:52:40.789Z,4.30
2018-06-09T04:55:15.934Z,4.60
2018-06-09T04:57:51.112Z,3.93
2018-06-09T05:23:02.705Z,4.03
2018-06-09T05:25:38.774Z,3.63
2018-06-09T05:28:13.932Z,3.63
2018-06-09T05:30:50.179Z,3.90
2018-06-09T05:33:25.538Z,3.57
2018-06-09T05:36:00.636Z,3.50
2018-06-09T05:38:35.908Z,3.37
2018-06-09T05:41:10.927Z,3.50
2018-06-09T05:43:46.022Z,3.67
2018-06-09T05:46:21.112Z,3.50
2018-06-09T05:48:56.493Z,3.50
2018-06-09T05:51:31.661Z,4.10
2018-06-09T05:54:06.951Z,3.67
2018-06-09T05:56:42.118Z,3.50
2018-06-09T05:59:17.336Z,3.40
2018-06-09T06:01:52.459Z,3.90
2018-06-09T06:04:27.553Z,3.63
2018-06-09T06:07:02.599Z,4.00
2018-06-09T06:09:37.612Z,3.77
2018-06-09T06:12:12.605Z,3.50
2018-06-09T06:14:47.582Z,3.50
2018-06-09T06:17:22.692Z,3.23
2018-06-09T06:19:57.795Z,3.50
2018-06-09T06:22:32.891Z,3.50
2018-06-09T06:25:07.888Z,3.57
2018-06-09T06:27:43.076Z,3.17
2018-06-09T06:30:19.223Z,3.30
2018-06-09T06:32:54.331Z,3.60
2018-06-09T22:27:21.645Z,3.63
2018-06-09T22:29:56.855Z,3.30
2018-06-09T22:32:31.996Z,3.37
2018-06-09T22:35:07.059Z,2.90
